sensor_id;sensor_type;location;lat;lon;timestamp;temperature;humidity
71082;SHT31;58740;50.672;18.690;2024-03-06T00:00:36;2.41;78.92
71082;SHT31;58740;50.672;18.690;2024-03-06T00:03:29;2.40;78.98
71082;SHT31;58740;50.672;18.690;2024-03-06T00:06:02;2.42;79.05
71082;SHT31;58740;50.672;18.690;2024-03-06T00:08:36;2.43;79.06
71082;SHT31;58740;50.672;18.690;2024-03-06T00:11:09;2.45;78.99
71082;SHT31;58740;50.672;18.690;2024-03-06T00:13:43;2.45;79.05
71082;SHT31;58740;50.672;18.690;2024-03-06T00:16:17;2.47;78.94
71082;SHT31;58740;50.672;18.690;2024-03-06T00:18:50;2.49;78.92
71082;SHT31;58740;50.672;18.690;2024-03-06T00:21:23;2.48;78.71
71082;SHT31;58740;50.672;18.690;2024-03-06T00:23:57;2.46;78.72
71082;SHT31;58740;50.672;18.690;2024-03-06T00:26:31;2.46;78.85
71082;SHT31;58740;50.672;18.690;2024-03-06T00:29:04;2.42;78.71
71082;SHT31;58740;50.672;18.690;2024-03-06T00:31:41;2.32;78.83
71082;SHT31;58740;50.672;18.690;2024-03-06T00:34:16;2.27;78.89
71082;SHT31;58740;50.672;18.690;2024-03-06T00:36:49;2.24;78.90
71082;SHT31;58740;50.672;18.690;2024-03-06T00:39:23;2.22;78.96
71082;SHT31;58740;50.672;18.690;2024-03-06T00:41:56;2.20;79.03
71082;SHT31;58740;50.672;18.690;2024-03-06T00:44:29;2.16;78.93
71082;SHT31;58740;50.672;18.690;2024-03-06T00:47:03;2.13;78.82
71082;SHT31;58740;50.672;18.690;2024-03-06T00:49:36;2.10;78.93
71082;SHT31;58740;50.672;18.690;2024-03-06T00:52:11;2.10;78.99
71082;SHT31;58740;50.672;18.690;2024-03-06T00:54:45;2.08;78.92
71082;SHT31;58740;50.672;18.690;2024-03-06T00:57:18;2.05;78.93
71082;SHT31;58740;50.672;18.690;2024-03-06T00:59:51;2.03;78.92
71082;SHT31;58740;50.672;18.690;2024-03-06T01:02:25;2.04;78.90
71082;SHT31;58740;50.672;18.690;2024-03-06T01:04:58;2.03;78.85
71082;SHT31;58740;50.672;18.690;2024-03-06T01:07:33;2.02;78.90
71082;SHT31;58740;50.672;18.690;2024-03-06T01:10:09;2.03;78.84
71082;SHT31;58740;50.672;18.690;2024-03-06T01:12:43;1.97;78.63
71082;SHT31;58740;50.672;18.690;2024-03-06T01:15:16;1.87;78.51
71082;SHT31;58740;50.672;18.690;2024-03-06T01:17:49;1.76;78.50
71082;SHT31;58740;50.672;18.690;2024-03-06T01:20:23;1.65;78.55
71082;SHT31;58740;50.672;18.690;2024-03-06T01:22:56;1.56;78.63
71082;SHT31;58740;50.672;18.690;2024-03-06T01:25:30;1.49;78.77
71082;SHT31;58740;50.672;18.690;2024-03-06T01:28:03;1.43;78.81
71082;SHT31;58740;50.672;18.690;2024-03-06T01:30:37;1.38;78.92
71082;SHT31;58740;50.672;18.690;2024-03-06T01:33:10;1.36;78.98
71082;SHT31;58740;50.672;18.690;2024-03-06T01:35:44;1.36;79.02
71082;SHT31;58740;50.672;18.690;2024-03-06T01:38:17;1.38;79.09
71082;SHT31;58740;50.672;18.690;2024-03-06T01:40:50;1.37;78.86
71082;SHT31;58740;50.672;18.690;2024-03-06T01:43:24;1.29;78.80
71082;SHT31;58740;50.672;18.690;2024-03-06T01:46:00;1.25;79.05
71082;SHT31;58740;50.672;18.690;2024-03-06T01:48:34;1.28;79.17
71082;SHT31;58740;50.672;18.690;2024-03-06T01:51:08;1.30;79.12
71082;SHT31;58740;50.672;18.690;2024-03-06T01:53:41;1.32;79.13
71082;SHT31;58740;50.672;18.690;2024-03-06T01:56:15;1.34;79.19
71082;SHT31;58740;50.672;18.690;2024-03-06T01:58:49;1.37;79.31
71082;SHT31;58740;50.672;18.690;2024-03-06T02:01:26;1.40;79.34
71082;SHT31;58740;50.672;18.690;2024-03-06T02:03:59;1.43;79.47
71082;SHT31;58740;50.672;18.690;2024-03-06T02:06:34;1.46;79.21
71082;SHT31;58740;50.672;18.690;2024-03-06T02:09:09;1.49;79.18
71082;SHT31;58740;50.672;18.690;2024-03-06T02:11:44;1.51;79.31
71082;SHT31;58740;50.672;18.690;2024-03-06T02:14:19;1.54;79.53
71082;SHT31;58740;50.672;18.690;2024-03-06T02:16:53;1.59;79.83
71082;SHT31;58740;50.672;18.690;2024-03-06T02:19:26;1.62;80.00
71082;SHT31;58740;50.672;18.690;2024-03-06T02:22:11;1.69;80.40
71082;SHT31;58740;50.672;18.690;2024-03-06T02:24:47;1.75;80.55
71082;SHT31;58740;50.672;18.690;2024-03-06T02:27:21;1.79;80.68
71082;SHT31;58740;50.672;18.690;2024-03-06T02:29:54;1.84;80.80
71082;SHT31;58740;50.672;18.690;2024-03-06T02:32:27;1.93;80.84
71082;SHT31;58740;50.672;18.690;2024-03-06T02:35:01;1.97;80.74
71082;SHT31;58740;50.672;18.690;2024-03-06T02:37:38;1.98;80.84
71082;SHT31;58740;50.672;18.690;2024-03-06T02:40:13;1.98;80.98
71082;SHT31;58740;50.672;18.690;2024-03-06T02:42:47;1.97;81.06
71082;SHT31;58740;50.672;18.690;2024-03-06T02:45:20;1.96;81.11
71082;SHT31;58740;50.672;18.690;2024-03-06T02:47:53;1.95;81.15
71082;SHT31;58740;50.672;18.690;2024-03-06T02:50:27;1.95;81.11
71082;SHT31;58740;50.672;18.690;2024-03-06T02:53:00;1.93;81.19
71082;SHT31;58740;50.672;18.690;2024-03-06T02:55:33;1.94;81.25
71082;SHT31;58740;50.672;18.690;2024-03-06T02:58:07;1.91;81.20
71082;SHT31;58740;50.672;18.690;2024-03-06T03:00:40;1.92;81.17
71082;SHT31;58740;50.672;18.690;2024-03-06T03:03:14;1.90;81.01
71082;SHT31;58740;50.672;18.690;2024-03-06T03:05:48;1.85;80.91
71082;SHT31;58740;50.672;18.690;2024-03-06T03:08:22;1.79;81.04
71082;SHT31;58740;50.672;18.690;2024-03-06T03:10:55;1.76;81.14
71082;SHT31;58740;50.672;18.690;2024-03-06T03:13:28;1.73;81.13
71082;SHT31;58740;50.672;18.690;2024-03-06T03:16:02;1.71;81.20
71082;SHT31;58740;50.672;18.690;2024-03-06T03:18:36;1.70;81.22
71082;SHT31;58740;50.672;18.690;2024-03-06T03:21:09;1.71;81.21
71082;SHT31;58740;50.672;18.690;2024-03-06T03:23:43;1.70;81.15
71082;SHT31;58740;50.672;18.690;2024-03-06T03:26:16;1.67;81.22
71082;SHT31;58740;50.672;18.690;2024-03-06T03:28:49;1.66;81.19
71082;SHT31;58740;50.672;18.690;2024-03-06T03:31:24;1.65;81.14
71082;SHT31;58740;50.672;18.690;2024-03-06T03:33:57;1.65;81.12
71082;SHT31;58740;50.672;18.690;2024-03-06T03:36:31;1.65;81.00
71082;SHT31;58740;50.672;18.690;2024-03-06T03:39:05;1.65;80.98
71082;SHT31;58740;50.672;18.690;2024-03-06T03:41:45;1.61;80.77
71082;SHT31;58740;50.672;18.690;2024-03-06T03:44:19;1.59;80.87
71082;SHT31;58740;50.672;18.690;2024-03-06T03:46:52;1.57;80.84
71082;SHT31;58740;50.672;18.690;2024-03-06T03:49:26;1.54;80.73
71082;SHT31;58740;50.672;18.690;2024-03-06T03:51:59;1.52;80.77
71082;SHT31;58740;50.672;18.690;2024-03-06T03:54:33;1.51;80.72
71082;SHT31;58740;50.672;18.690;2024-03-06T03:57:06;1.48;80.67
71082;SHT31;58740;50.672;18.690;2024-03-06T03:59:39;1.42;80.56
71082;SHT31;58740;50.672;18.690;2024-03-06T04:02:13;1.37;80.57
71082;SHT31;58740;50.672;18.690;2024-03-06T04:04:47;1.32;80.61
71082;SHT31;58740;50.672;18.690;2024-03-06T04:07:20;1.32;80.65
71082;SHT31;58740;50.672;18.690;2024-03-06T04:09:53;1.32;80.47
71082;SHT31;58740;50.672;18.690;2024-03-06T04:12:27;1.31;80.33
71082;SHT31;58740;50.672;18.690;2024-03-06T04:15:01;1.29;80.42
71082;SHT31;58740;50.672;18.690;2024-03-06T04:17:35;1.31;80.66
71082;SHT31;58740;50.672;18.690;2024-03-06T04:20:10;1.33;80.51
71082;SHT31;58740;50.672;18.690;2024-03-06T04:22:45;1.32;80.26
71082;SHT31;58740;50.672;18.690;2024-03-06T04:25:20;1.27;80.02
71082;SHT31;58740;50.672;18.690;2024-03-06T04:27:53;1.22;80.05
71082;SHT31;58740;50.672;18.690;2024-03-06T04:30:27;1.16;80.12
71082;SHT31;58740;50.672;18.690;2024-03-06T04:33:00;1.12;80.35
71082;SHT31;58740;50.672;18.690;2024-03-06T04:35:33;1.08;80.35
71082;SHT31;58740;50.672;18.690;2024-03-06T04:38:06;1.05;80.65
71082;SHT31;58740;50.672;18.690;2024-03-06T04:40:40;1.06;80.76
71082;SHT31;58740;50.672;18.690;2024-03-06T04:43:14;1.03;80.76
71082;SHT31;58740;50.672;18.690;2024-03-06T04:45:47;1.00;80.74
71082;SHT31;58740;50.672;18.690;2024-03-06T04:48:20;0.95;80.88
71082;SHT31;58740;50.672;18.690;2024-03-06T04:50:54;0.94;81.15
71082;SHT31;58740;50.672;18.690;2024-03-06T04:53:27;0.94;81.00
71082;SHT31;58740;50.672;18.690;2024-03-06T04:56:01;0.90;80.95
71082;SHT31;58740;50.672;18.690;2024-03-06T04:58:36;0.84;81.07
71082;SHT31;58740;50.672;18.690;2024-03-06T05:01:11;0.82;81.22
71082;SHT31;58740;50.672;18.690;2024-03-06T05:03:44;0.79;80.98
71082;SHT31;58740;50.672;18.690;2024-03-06T05:06:36;0.77;81.11
71082;SHT31;58740;50.672;18.690;2024-03-06T05:09:27;0.78;81.26
71082;SHT31;58740;50.672;18.690;2024-03-06T05:12:19;0.76;81.11
71082;SHT31;58740;50.672;18.690;2024-03-06T05:15:10;0.75;81.20
71082;SHT31;58740;50.672;18.690;2024-03-06T05:18:02;0.74;81.29
71082;SHT31;58740;50.672;18.690;2024-03-06T05:20:55;0.75;81.21
71082;SHT31;58740;50.672;18.690;2024-03-06T05:23:46;0.73;80.95
71082;SHT31;58740;50.672;18.690;2024-03-06T05:26:36;0.67;80.75
71082;SHT31;58740;50.672;18.690;2024-03-06T05:29:27;0.61;80.80
71082;SHT31;58740;50.672;18.690;2024-03-06T05:32:18;0.59;81.04
71082;SHT31;58740;50.672;18.690;2024-03-06T05:35:09;0.61;81.21
71082;SHT31;58740;50.672;18.690;2024-03-06T05:37:59;0.63;81.34
71082;SHT31;58740;50.672;18.690;2024-03-06T05:40:50;0.68;81.31
71082;SHT31;58740;50.672;18.690;2024-03-06T05:43:41;0.73;81.35
71082;SHT31;58740;50.672;18.690;2024-03-06T05:46:32;0.75;81.10
71082;SHT31;58740;50.672;18.690;2024-03-06T05:49:23;0.75;81.06
71082;SHT31;58740;50.672;18.690;2024-03-06T05:52:15;0.73;81.07
71082;SHT31;58740;50.672;18.690;2024-03-06T05:55:06;0.71;80.98
71082;SHT31;58740;50.672;18.690;2024-03-06T05:57:58;0.70;81.21
71082;SHT31;58740;50.672;18.690;2024-03-06T06:00:37;0.71;81.29
71082;SHT31;58740;50.672;18.690;2024-03-06T06:03:11;0.70;81.26
71082;SHT31;58740;50.672;18.690;2024-03-06T06:05:46;0.73;81.46
71082;SHT31;58740;50.672;18.690;2024-03-06T06:08:20;0.75;81.66
71082;SHT31;58740;50.672;18.690;2024-03-06T06:10:53;0.77;81.50
71082;SHT31;58740;50.672;18.690;2024-03-06T06:13:27;0.77;81.50
71082;SHT31;58740;50.672;18.690;2024-03-06T06:16:00;0.77;81.56
71082;SHT31;58740;50.672;18.690;2024-03-06T06:18:34;0.76;81.60
71082;SHT31;58740;50.672;18.690;2024-03-06T06:21:10;0.78;81.70
71082;SHT31;58740;50.672;18.690;2024-03-06T06:23:45;0.81;81.74
71082;SHT31;58740;50.672;18.690;2024-03-06T06:26:18;0.86;81.88
71082;SHT31;58740;50.672;18.690;2024-03-06T06:28:52;0.92;81.89
71082;SHT31;58740;50.672;18.690;2024-03-06T06:31:25;0.95;81.69
71082;SHT31;58740;50.672;18.690;2024-03-06T06:33:58;0.96;81.46
71082;SHT31;58740;50.672;18.690;2024-03-06T06:36:32;0.93;81.32
71082;SHT31;58740;50.672;18.690;2024-03-06T06:39:06;0.91;81.42
71082;SHT31;58740;50.672;18.690;2024-03-06T06:41:41;0.88;81.39
71082;SHT31;58740;50.672;18.690;2024-03-06T06:44:14;0.87;81.53
71082;SHT31;58740;50.672;18.690;2024-03-06T06:46:48;0.88;81.58
71082;SHT31;58740;50.672;18.690;2024-03-06T06:49:21;0.87;81.51
71082;SHT31;58740;50.672;18.690;2024-03-06T06:51:54;0.90;81.63
71082;SHT31;58740;50.672;18.690;2024-03-06T06:54:28;0.93;81.66
71082;SHT31;58740;50.672;18.690;2024-03-06T06:57:01;0.98;81.88
71082;SHT31;58740;50.672;18.690;2024-03-06T06:59:35;1.02;81.73
71082;SHT31;58740;50.672;18.690;2024-03-06T07:02:08;1.07;81.80
71082;SHT31;58740;50.672;18.690;2024-03-06T07:04:41;1.10;81.82
71082;SHT31;58740;50.672;18.690;2024-03-06T07:07:15;1.13;81.82
71082;SHT31;58740;50.672;18.690;2024-03-06T07:09:48;1.15;81.67
71082;SHT31;58740;50.672;18.690;2024-03-06T07:12:21;1.16;81.75
71082;SHT31;58740;50.672;18.690;2024-03-06T07:14:55;1.14;81.64
71082;SHT31;58740;50.672;18.690;2024-03-06T07:17:29;1.13;81.65
71082;SHT31;58740;50.672;18.690;2024-03-06T07:20:03;1.12;81.67
71082;SHT31;58740;50.672;18.690;2024-03-06T07:22:39;1.14;81.82
71082;SHT31;58740;50.672;18.690;2024-03-06T07:25:12;1.17;81.97
71082;SHT31;58740;50.672;18.690;2024-03-06T07:27:46;1.22;82.10
71082;SHT31;58740;50.672;18.690;2024-03-06T07:30:19;1.27;82.09
71082;SHT31;58740;50.672;18.690;2024-03-06T07:32:52;1.33;82.18
71082;SHT31;58740;50.672;18.690;2024-03-06T07:35:26;1.36;82.14
71082;SHT31;58740;50.672;18.690;2024-03-06T07:38:00;1.38;82.09
71082;SHT31;58740;50.672;18.690;2024-03-06T07:40:34;1.40;82.22
71082;SHT31;58740;50.672;18.690;2024-03-06T07:43:07;1.45;82.26
71082;SHT31;58740;50.672;18.690;2024-03-06T07:45:41;1.49;82.39
71082;SHT31;58740;50.672;18.690;2024-03-06T07:48:14;1.56;82.36
71082;SHT31;58740;50.672;18.690;2024-03-06T07:50:47;1.60;82.35
71082;SHT31;58740;50.672;18.690;2024-03-06T07:53:20;1.66;82.39
71082;SHT31;58740;50.672;18.690;2024-03-06T07:55:53;1.70;82.47
71082;SHT31;58740;50.672;18.690;2024-03-06T07:58:26;1.74;82.45
71082;SHT31;58740;50.672;18.690;2024-03-06T08:00:59;1.77;82.49
71082;SHT31;58740;50.672;18.690;2024-03-06T08:03:31;1.85;82.50
71082;SHT31;58740;50.672;18.690;2024-03-06T08:06:04;1.89;82.35
71082;SHT31;58740;50.672;18.690;2024-03-06T08:08:39;1.93;82.41
71082;SHT31;58740;50.672;18.690;2024-03-06T08:11:13;1.99;82.53
71082;SHT31;58740;50.672;18.690;2024-03-06T08:13:46;2.07;82.67
71082;SHT31;58740;50.672;18.690;2024-03-06T08:16:19;2.15;82.76
71082;SHT31;58740;50.672;18.690;2024-03-06T08:18:51;2.22;82.71
71082;SHT31;58740;50.672;18.690;2024-03-06T08:21:24;2.27;82.70
71082;SHT31;58740;50.672;18.690;2024-03-06T08:23:56;2.31;82.84
71082;SHT31;58740;50.672;18.690;2024-03-06T08:26:29;2.39;83.00
71082;SHT31;58740;50.672;18.690;2024-03-06T08:29:01;2.45;82.94
71082;SHT31;58740;50.672;18.690;2024-03-06T08:31:34;2.51;82.78
71082;SHT31;58740;50.672;18.690;2024-03-06T08:34:07;2.57;82.92
71082;SHT31;58740;50.672;18.690;2024-03-06T08:36:39;2.61;82.81
71082;SHT31;58740;50.672;18.690;2024-03-06T08:39:11;2.64;82.81
71082;SHT31;58740;50.672;18.690;2024-03-06T08:41:44;2.67;82.90
71082;SHT31;58740;50.672;18.690;2024-03-06T08:44:16;2.71;83.02
71082;SHT31;58740;50.672;18.690;2024-03-06T08:46:49;2.77;82.99
71082;SHT31;58740;50.672;18.690;2024-03-06T08:49:21;2.83;83.04
71082;SHT31;58740;50.672;18.690;2024-03-06T08:51:53;2.87;82.89
71082;SHT31;58740;50.672;18.690;2024-03-06T08:54:26;2.91;82.91
71082;SHT31;58740;50.672;18.690;2024-03-06T08:56:59;2.96;82.97
71082;SHT31;58740;50.672;18.690;2024-03-06T08:59:31;2.99;82.81
71082;SHT31;58740;50.672;18.690;2024-03-06T09:02:13;3.01;82.81
71082;SHT31;58740;50.672;18.690;2024-03-06T09:04:47;3.05;82.73
71082;SHT31;58740;50.672;18.690;2024-03-06T09:07:20;3.08;82.75
71082;SHT31;58740;50.672;18.690;2024-03-06T09:09:53;3.09;82.64
71082;SHT31;58740;50.672;18.690;2024-03-06T09:12:26;3.08;82.60
71082;SHT31;58740;50.672;18.690;2024-03-06T09:14:58;3.06;82.66
71082;SHT31;58740;50.672;18.690;2024-03-06T09:17:32;3.07;82.87
71082;SHT31;58740;50.672;18.690;2024-03-06T09:20:05;3.11;82.80
71082;SHT31;58740;50.672;18.690;2024-03-06T09:22:41;3.14;82.81
71082;SHT31;58740;50.672;18.690;2024-03-06T09:25:15;3.17;82.93
71082;SHT31;58740;50.672;18.690;2024-03-06T09:27:47;3.21;82.90
71082;SHT31;58740;50.672;18.690;2024-03-06T09:30:19;3.22;82.85
71082;SHT31;58740;50.672;18.690;2024-03-06T09:32:52;3.24;82.71
71082;SHT31;58740;50.672;18.690;2024-03-06T09:35:25;3.26;82.67
71082;SHT31;58740;50.672;18.690;2024-03-06T09:37:57;3.28;82.78
71082;SHT31;58740;50.672;18.690;2024-03-06T09:40:30;3.31;82.93
71082;SHT31;58740;50.672;18.690;2024-03-06T09:43:02;3.33;82.92
71082;SHT31;58740;50.672;18.690;2024-03-06T09:45:35;3.37;82.92
71082;SHT31;58740;50.672;18.690;2024-03-06T09:48:08;3.38;82.84
71082;SHT31;58740;50.672;18.690;2024-03-06T09:50:41;3.41;82.81
71082;SHT31;58740;50.672;18.690;2024-03-06T09:53:16;3.43;82.62
71082;SHT31;58740;50.672;18.690;2024-03-06T09:55:50;3.46;82.66
71082;SHT31;58740;50.672;18.690;2024-03-06T09:58:25;3.46;82.58
71082;SHT31;58740;50.672;18.690;2024-03-06T10:00:57;3.47;82.51
71082;SHT31;58740;50.672;18.690;2024-03-06T10:03:36;3.46;82.51
71082;SHT31;58740;50.672;18.690;2024-03-06T10:06:09;3.47;82.52
71082;SHT31;58740;50.672;18.690;2024-03-06T10:08:43;3.46;82.50
71082;SHT31;58740;50.672;18.690;2024-03-06T10:11:17;3.45;82.58
71082;SHT31;58740;50.672;18.690;2024-03-06T10:13:50;3.45;82.68
71082;SHT31;58740;50.672;18.690;2024-03-06T10:16:24;3.45;82.84
71082;SHT31;58740;50.672;18.690;2024-03-06T10:18:56;3.47;82.96
71082;SHT31;58740;50.672;18.690;2024-03-06T10:21:47;3.47;82.95
71082;SHT31;58740;50.672;18.690;2024-03-06T10:24:21;3.46;82.98
71082;SHT31;58740;50.672;18.690;2024-03-06T10:26:55;3.49;82.86
71082;SHT31;58740;50.672;18.690;2024-03-06T10:29:28;3.48;82.89
71082;SHT31;58740;50.672;18.690;2024-03-06T10:32:03;3.46;82.81
71082;SHT31;58740;50.672;18.690;2024-03-06T10:34:37;3.44;82.98
71082;SHT31;58740;50.672;18.690;2024-03-06T10:37:10;3.44;83.07
71082;SHT31;58740;50.672;18.690;2024-03-06T10:39:43;3.45;83.17
71082;SHT31;58740;50.672;18.690;2024-03-06T10:42:19;3.46;83.40
71082;SHT31;58740;50.672;18.690;2024-03-06T10:44:56;3.49;83.39
71082;SHT31;58740;50.672;18.690;2024-03-06T10:47:34;3.46;83.43
71082;SHT31;58740;50.672;18.690;2024-03-06T10:50:09;3.47;83.51
71082;SHT31;58740;50.672;18.690;2024-03-06T10:52:45;3.45;83.63
71082;SHT31;58740;50.672;18.690;2024-03-06T10:55:23;3.44;83.73
71082;SHT31;58740;50.672;18.690;2024-03-06T10:58:02;3.45;83.82
71082;SHT31;58740;50.672;18.690;2024-03-06T11:00:38;3.47;83.95
71082;SHT31;58740;50.672;18.690;2024-03-06T11:03:14;3.49;83.83
71082;SHT31;58740;50.672;18.690;2024-03-06T11:05:46;3.50;83.90
71082;SHT31;58740;50.672;18.690;2024-03-06T11:08:20;3.49;83.95
71082;SHT31;58740;50.672;18.690;2024-03-06T11:10:53;3.49;84.00
71082;SHT31;58740;50.672;18.690;2024-03-06T11:13:55;3.47;84.10
71082;SHT31;58740;50.672;18.690;2024-03-06T11:16:33;3.47;84.25
71082;SHT31;58740;50.672;18.690;2024-03-06T11:19:30;3.47;84.35
71082;SHT31;58740;50.672;18.690;2024-03-06T11:25:58;3.52;84.64
71082;SHT31;58740;50.672;18.690;2024-03-06T11:28:34;3.56;84.61
71082;SHT31;58740;50.672;18.690;2024-03-06T11:31:09;3.59;84.54
71082;SHT31;58740;50.672;18.690;2024-03-06T11:33:47;3.58;84.63
71082;SHT31;58740;50.672;18.690;2024-03-06T11:36:25;3.59;84.66
71082;SHT31;58740;50.672;18.690;2024-03-06T11:38:58;3.61;84.70
71082;SHT31;58740;50.672;18.690;2024-03-06T11:41:47;3.62;84.69
71082;SHT31;58740;50.672;18.690;2024-03-06T11:44:21;3.63;84.80
71082;SHT31;58740;50.672;18.690;2024-03-06T11:46:58;3.66;84.73
71082;SHT31;58740;50.672;18.690;2024-03-06T11:49:32;3.67;84.70
71082;SHT31;58740;50.672;18.690;2024-03-06T11:52:07;3.68;84.77
71082;SHT31;58740;50.672;18.690;2024-03-06T11:54:40;3.70;84.77
71082;SHT31;58740;50.672;18.690;2024-03-06T11:57:12;3.68;84.66
71082;SHT31;58740;50.672;18.690;2024-03-06T11:59:48;3.63;84.71
71082;SHT31;58740;50.672;18.690;2024-03-06T12:02:23;3.61;84.94
71082;SHT31;58740;50.672;18.690;2024-03-06T12:04:56;3.60;84.97
71082;SHT31;58740;50.672;18.690;2024-03-06T12:07:33;3.57;84.93
71082;SHT31;58740;50.672;18.690;2024-03-06T12:10:18;3.55;85.14
71082;SHT31;58740;50.672;18.690;2024-03-06T12:12:51;3.54;85.31
71082;SHT31;58740;50.672;18.690;2024-03-06T12:15:23;3.57;85.45
71082;SHT31;58740;50.672;18.690;2024-03-06T12:17:55;3.60;85.41
71082;SHT31;58740;50.672;18.690;2024-03-06T12:20:28;3.60;85.36
71082;SHT31;58740;50.672;18.690;2024-03-06T12:23:01;3.60;85.41
71082;SHT31;58740;50.672;18.690;2024-03-06T12:25:33;3.59;85.34
71082;SHT31;58740;50.672;18.690;2024-03-06T12:28:07;3.58;85.32
71082;SHT31;58740;50.672;18.690;2024-03-06T12:30:41;3.55;85.27
71082;SHT31;58740;50.672;18.690;2024-03-06T12:33:17;3.54;85.53
71082;SHT31;58740;50.672;18.690;2024-03-06T12:35:49;3.56;85.60
71082;SHT31;58740;50.672;18.690;2024-03-06T12:38:39;3.58;85.68
71082;SHT31;58740;50.672;18.690;2024-03-06T12:41:11;3.60;85.68
71082;SHT31;58740;50.672;18.690;2024-03-06T12:43:44;3.62;85.63
71082;SHT31;58740;50.672;18.690;2024-03-06T12:46:16;3.64;85.69
71082;SHT31;58740;50.672;18.690;2024-03-06T12:48:49;3.67;85.70
71082;SHT31;58740;50.672;18.690;2024-03-06T12:51:22;3.68;85.64
71082;SHT31;58740;50.672;18.690;2024-03-06T12:53:54;3.67;85.64
71082;SHT31;58740;50.672;18.690;2024-03-06T12:56:28;3.65;85.61
71082;SHT31;58740;50.672;18.690;2024-03-06T12:59:01;3.63;85.59
71082;SHT31;58740;50.672;18.690;2024-03-06T13:01:34;3.62;85.72
71082;SHT31;58740;50.672;18.690;2024-03-06T13:04:06;3.64;85.78
71082;SHT31;58740;50.672;18.690;2024-03-06T13:06:40;3.67;85.82
71082;SHT31;58740;50.672;18.690;2024-03-06T13:09:13;3.68;85.75
71082;SHT31;58740;50.672;18.690;2024-03-06T13:11:45;3.66;85.86
71082;SHT31;58740;50.672;18.690;2024-03-06T13:14:18;3.65;85.89
71082;SHT31;58740;50.672;18.690;2024-03-06T13:16:50;3.64;85.93
71082;SHT31;58740;50.672;18.690;2024-03-06T13:19:23;3.62;86.11
71082;SHT31;58740;50.672;18.690;2024-03-06T13:21:57;3.63;86.20
71082;SHT31;58740;50.672;18.690;2024-03-06T13:24:32;3.62;86.24
71082;SHT31;58740;50.672;18.690;2024-03-06T13:27:11;3.63;86.38
71082;SHT31;58740;50.672;18.690;2024-03-06T13:29:43;3.65;86.40
71082;SHT31;58740;50.672;18.690;2024-03-06T13:32:16;3.67;86.40
71082;SHT31;58740;50.672;18.690;2024-03-06T13:34:48;3.68;86.41
71082;SHT31;58740;50.672;18.690;2024-03-06T13:37:21;3.70;86.53
71082;SHT31;58740;50.672;18.690;2024-03-06T13:39:53;3.72;86.51
71082;SHT31;58740;50.672;18.690;2024-03-06T13:42:29;3.71;86.52
71082;SHT31;58740;50.672;18.690;2024-03-06T13:45:01;3.71;86.56
71082;SHT31;58740;50.672;18.690;2024-03-06T13:47:39;3.74;86.63
71082;SHT31;58740;50.672;18.690;2024-03-06T13:50:15;3.74;86.67
71082;SHT31;58740;50.672;18.690;2024-03-06T13:52:50;3.74;86.70
71082;SHT31;58740;50.672;18.690;2024-03-06T13:55:22;3.73;86.75
71082;SHT31;58740;50.672;18.690;2024-03-06T13:57:56;3.75;86.80
71082;SHT31;58740;50.672;18.690;2024-03-06T14:00:32;3.76;86.83
71082;SHT31;58740;50.672;18.690;2024-03-06T14:03:05;3.78;86.94
71082;SHT31;58740;50.672;18.690;2024-03-06T14:05:40;3.81;86.98
71082;SHT31;58740;50.672;18.690;2024-03-06T14:08:14;3.84;86.99
71082;SHT31;58740;50.672;18.690;2024-03-06T14:10:49;3.84;87.03
71082;SHT31;58740;50.672;18.690;2024-03-06T14:13:22;3.85;87.11
71082;SHT31;58740;50.672;18.690;2024-03-06T14:15:58;3.88;87.10
71082;SHT31;58740;50.672;18.690;2024-03-06T14:18:31;3.88;87.11
71082;SHT31;58740;50.672;18.690;2024-03-06T14:21:04;3.89;87.18
71082;SHT31;58740;50.672;18.690;2024-03-06T14:23:38;3.90;87.24
71082;SHT31;58740;50.672;18.690;2024-03-06T14:26:12;3.91;87.30
71082;SHT31;58740;50.672;18.690;2024-03-06T14:28:45;3.91;87.34
71082;SHT31;58740;50.672;18.690;2024-03-06T14:31:23;3.90;87.38
71082;SHT31;58740;50.672;18.690;2024-03-06T14:33:56;3.93;87.43
71082;SHT31;58740;50.672;18.690;2024-03-06T14:36:33;3.93;87.49
71082;SHT31;58740;50.672;18.690;2024-03-06T14:39:06;3.94;87.55
71082;SHT31;58740;50.672;18.690;2024-03-06T14:41:53;3.96;87.62
71082;SHT31;58740;50.672;18.690;2024-03-06T14:44:26;3.97;87.65
71082;SHT31;58740;50.672;18.690;2024-03-06T14:46:58;3.98;87.60
71082;SHT31;58740;50.672;18.690;2024-03-06T14:49:31;3.99;87.70
71082;SHT31;58740;50.672;18.690;2024-03-06T14:52:03;3.99;87.73
71082;SHT31;58740;50.672;18.690;2024-03-06T14:54:37;4.00;87.79
71082;SHT31;58740;50.672;18.690;2024-03-06T14:57:12;4.02;87.79
71082;SHT31;58740;50.672;18.690;2024-03-06T14:59:44;4.01;87.82
71082;SHT31;58740;50.672;18.690;2024-03-06T15:02:18;4.03;87.93
71082;SHT31;58740;50.672;18.690;2024-03-06T15:04:50;4.05;87.97
71082;SHT31;58740;50.672;18.690;2024-03-06T15:07:22;4.06;87.97
71082;SHT31;58740;50.672;18.690;2024-03-06T15:09:55;4.07;88.02
71082;SHT31;58740;50.672;18.690;2024-03-06T15:12:27;4.08;88.00
71082;SHT31;58740;50.672;18.690;2024-03-06T15:14:59;4.09;88.00
71082;SHT31;58740;50.672;18.690;2024-03-06T15:17:34;4.10;88.02
71082;SHT31;58740;50.672;18.690;2024-03-06T15:20:10;4.12;87.94
71082;SHT31;58740;50.672;18.690;2024-03-06T15:22:43;4.15;87.95
71082;SHT31;58740;50.672;18.690;2024-03-06T15:25:16;4.16;88.00
71082;SHT31;58740;50.672;18.690;2024-03-06T15:27:49;4.18;87.99
71082;SHT31;58740;50.672;18.690;2024-03-06T15:30:21;4.19;88.00
71082;SHT31;58740;50.672;18.690;2024-03-06T15:32:56;4.20;88.00
71082;SHT31;58740;50.672;18.690;2024-03-06T15:35:28;4.22;88.00
71082;SHT31;58740;50.672;18.690;2024-03-06T15:38:00;4.24;88.00
71082;SHT31;58740;50.672;18.690;2024-03-06T15:40:33;4.25;88.01
71082;SHT31;58740;50.672;18.690;2024-03-06T15:43:06;4.27;88.00
71082;SHT31;58740;50.672;18.690;2024-03-06T15:45:38;4.28;88.00
71082;SHT31;58740;50.672;18.690;2024-03-06T15:48:11;4.30;88.02
71082;SHT31;58740;50.672;18.690;2024-03-06T15:50:44;4.29;88.00
71082;SHT31;58740;50.672;18.690;2024-03-06T15:53:16;4.30;88.00
71082;SHT31;58740;50.672;18.690;2024-03-06T15:55:56;4.30;88.08
71082;SHT31;58740;50.672;18.690;2024-03-06T15:58:28;4.30;88.10
71082;SHT31;58740;50.672;18.690;2024-03-06T16:01:01;4.32;88.13
71082;SHT31;58740;50.672;18.690;2024-03-06T16:03:34;4.32;88.20
71082;SHT31;58740;50.672;18.690;2024-03-06T16:06:06;4.34;88.19
71082;SHT31;58740;50.672;18.690;2024-03-06T16:08:46;4.36;88.18
71082;SHT31;58740;50.672;18.690;2024-03-06T16:11:18;4.36;88.20
71082;SHT31;58740;50.672;18.690;2024-03-06T16:13:51;4.36;88.21
71082;SHT31;58740;50.672;18.690;2024-03-06T16:16:27;4.38;88.21
71082;SHT31;58740;50.672;18.690;2024-03-06T16:18:59;4.40;88.28
71082;SHT31;58740;50.672;18.690;2024-03-06T16:21:32;4.41;88.36